Stouffville Airport

CA-0635 · Ontario, Canada

METAR history CA-0635 · Stouffville Airport

Below you see METARs of the last few days. Select a year to browse through older METARs, from the year 2007 onwards.

December 2, 2022

Time Code Weather Temp. Visibility Ceiling Wind METAR/SPECI
11:00
V
3 °C 15 mi 7,500 ft 150° 150° 10 kt METAR CYYZ 021600Z 15010KT 15SM BKN075 BKN120 03/M02 A3022 RMK AC5AC2 PRESFR SLP243
11:00
V
3 °C 15 mi 7,500 ft 150° 150° 10 kt METAR CYYZ 021600Z 15010KT 15SM BKN075 BKN120 03/M02 A3022 RMK AC5AC2 PRESFR SLP243
10:00
V
3 °C 15 mi 7,300 ft 160° 160° 8 kt METAR CYYZ 021500Z 16008KT 130V200 15SM BKN073 BKN110 03/M02 A3025 RMK AC5AC2 SLP253
09:00
V
3 °C 15 mi 10,000 ft 160° 160° 7 kt METAR CYYZ 021400Z 16007KT 15SM BKN100 BKN130 03/M02 A3028 RMK AC5AC2 SLP263
08:00
V
1 °C 15 mi 11,000 ft 190° 190° 5 kt METAR CYYZ 021300Z 19005KT 15SM BKN110 BKN240 01/M02 A3031 RMK AC6CI1 PRESRR SLP273
07:00
V
1 °C 12 mi 11,000 ft 190° 190° 5 kt METAR CYYZ 021200Z 19005KT 12SM OVC110 01/M03 A3032 RMK AC8 SLP278
06:00
V
0 °C 15 mi 11,000 ft 170° 170° 5 kt METAR CYYZ 021100Z 17005KT 15SM OVC110 00/M03 A3032 RMK AC8 SLP276
05:00
V
-1 °C 15 mi 12,000 ft 170° 170° 5 kt METAR CYYZ 021000Z 17005KT 15SM OVC120 M01/M04 A3033 RMK AC8 SLP282
04:00
V
-2 °C 15 mi 12,000 ft 170° 170° 4 kt METAR CYYZ 020900Z 17004KT 15SM OVC120 M02/M05 A3035 RMK AC8 SLP287
03:00
V
-3 °C 15 mi 12,000 ft Var 000° 0 kt METAR CYYZ 020800Z 00000KT 15SM BKN120 M03/M07 A3038 RMK AC7 SLP297
02:00
V
-3 °C 15 mi 11,000 ft 170° 170° 3 kt METAR CYYZ 020700Z 17003KT 150V260 15SM FEW025 BKN110 M03/M07 A3037 RMK SC1AC5 SLP295
01:00
V
-3 °C 15 mi - 210° 210° 4 kt METAR CYYZ 020600Z 21004KT 15SM FEW120 FEW230 M03/M07 A3038 RMK AC1CI1 SLP300
00:00
V
-3 °C 15 mi - 190° 190° 4 kt METAR CYYZ 020500Z 19004KT 15SM SKC M03/M07 A3039 RMK SLP302

December 1, 2022

Time Code Weather Temp. Visibility Ceiling Wind METAR/SPECI
23:00
V
-3 °C 15 mi - 190° 190° 2 kt METAR CYYZ 020400Z 19002KT 15SM FEW025 M03/M07 A3040 RMK SC1 SC TR SLP306
22:00
V
-2 °C 15 mi - 200° 200° 5 kt METAR CYYZ 020300Z 20005KT 15SM FEW025 M02/M06 A3040 RMK SC1 SLP304
21:00
V
-2 °C 15 mi - 220° 220° 9 kt METAR CYYZ 020200Z 22009KT 15SM FEW025 M02/M06 A3041 RMK SC1 SLP308
20:00
M
-1 °C 15 mi 2,700 ft 240° 240° 10 - 15 kt METAR CYYZ 020100Z 24010G15KT 15SM BKN027 M01/M06 A3041 RMK SC7 SLP310
19:00
M
0 °C 15 mi 2,600 ft 250° 250° 11 kt METAR CYYZ 020000Z 25011KT 15SM OVC026 M00/M06 A3041 RMK SC8 PRESRR SLP309
18:00
M
0 °C 15 mi 2,500 ft 240° 240° 12 - 17 kt METAR CYYZ 012300Z 24012G17KT 15SM BKN025 BKN035 M00/M05 A3040 RMK SC6SC1 SLP305
17:00
V
0 °C 15 mi 3,200 ft 250° 250° 14 - 20 kt METAR CYYZ 012200Z 25014G20KT 15SM OVC032 M00/M05 A3039 RMK SC8 SLP301
16:00
V
0 °C 15 mi 3,500 ft 260° 260° 13 - 20 kt METAR CYYZ 012100Z 26013G20KT 15SM FEW025 BKN035 00/M05 A3038 RMK CF1SC7 CF TR SLP297
15:00
V
1 °C 15 mi 4,000 ft 260° 260° 17 - 23 kt METAR CYYZ 012000Z 26017G23KT 15SM FEW030 BKN040 BKN080 01/M05 A3035 RMK CF1SC7AC1 CF TR AC TR SLP288
14:00
V
1 °C 15 mi 5,000 ft 270° 270° 17 - 25 kt METAR CYYZ 011900Z 27017G25KT 15SM FEW030 BKN050 BKN080 01/M05 A3034 RMK CF1SC7AC1 CF TR AC TR SLP283
13:00
V
1 °C 15 mi 3,000 ft 260° 260° 17 - 24 kt METAR CYYZ 011800Z 26017G24KT 15SM FEW025 OVC030 01/M05 A3032 RMK CF1SC8 CF TR SLP277
12:00
V
1 °C 15 mi 5,000 ft 260° 260° 18 - 25 kt METAR CYYZ 011700Z 26018G25KT 15SM FEW025 BKN050 01/M04 A3030 RMK CF1SC7 CF TR SLP270
11:00
V
1 °C 15 mi - 270° 270° 19 - 28 kt METAR CYYZ 011600Z 27019G28KT 15SM FEW030 SCT050 01/M04 A3027 RMK SC2SC1 SLP261
10:00
V
0 °C 15 mi - 270° 270° 18 - 25 kt METAR CYYZ 011500Z 27018G25KT 15SM FEW025 FEW050 00/M05 A3024 RMK CF1SC1 SLP250
09:00
V
-1 °C 15 mi - 260° 260° 17 - 24 kt METAR CYYZ 011400Z 26017G24KT 15SM FEW025 FEW050 M01/M05 A3020 RMK CF1SC1 CF TR SLP239
08:00
V
-2 °C 15 mi - 250° 250° 17 kt METAR CYYZ 011300Z 25017KT 15SM FEW025 FEW050 M02/M06 A3017 RMK CF1SC1 CF TR SLP228
07:00
V
-2 °C 15 mi 5,200 ft 270° 270° 16 - 25 kt METAR CYYZ 011200Z 27016G25KT 15SM SCT025 BKN052 M02/M06 A3014 RMK CF3SC4 SLP217
06:00
V
-2 °C 15 mi 3,100 ft 260° 260° 16 - 23 kt METAR CYYZ 011100Z 26016G23KT 15SM BKN031 BKN055 M02/M06 A3009 RMK SC6SC1 PRESRR SLP200
05:50
V
-2 °C 15 mi 3,100 ft 260° 260° 17 - 23 kt SPECI CYYZ 011050Z 26017G23KT 15SM BKN031 BKN052 M02/M06 A3008 RMK SC5SC2 SLP196
05:00
V
-2 °C 10 mi 5,100 ft 260° 260° 19 - 26 kt METAR CYYZ 011000Z 26019G26KT 10SM -SN FEW035 OVC051 M02/M06 A3005 RMK CF2SC6 SLP184
04:41
V
-2 °C 15 mi 5,100 ft 260° 260° 15 - 22 kt METAR CYYZ 010941Z 26015G22KT 15SM -SN FEW035 BKN051 M02/M07 A3004 RMK CF2SC5 SLP181
04:00
V
-2 °C 15 mi 5,200 ft 250° 250° 18 - 25 kt METAR CYYZ 010900Z 25018G25KT 15SM FEW030 BKN052 M02/M07 A3000 RMK CF2SC4 SLP170
03:00
V
-2 °C 15 mi 5,100 ft 260° 260° 20 - 26 kt METAR CYYZ 010800Z 26020G26KT 15SM SCT034 BKN051 M02/M07 A2998 RMK SC3SC4 SLP163
02:00
V
-2 °C 15 mi 6,200 ft 270° 270° 13 - 24 kt METAR CYYZ 010700Z 27013G24KT 15SM FEW030 BKN062 M02/M07 A2996 RMK CF1SC5 SLP154
01:00
V
-2 °C 15 mi 7,600 ft 270° 270° 18 - 25 kt METAR CYYZ 010600Z 27018G25KT 15SM FEW025 SCT055 BKN076 M02/M07 A2993 RMK CF2SC1AC3 SLP144
00:00
V
-2 °C 15 mi 6,300 ft 260° 260° 14 - 22 kt METAR CYYZ 010500Z 26014G22KT 15SM SCT025 BKN063 M02/M06 A2991 RMK CF3SC2 SLP137

November 30, 2022

Time Code Weather Temp. Visibility Ceiling Wind METAR/SPECI
23:34
V
-2 °C 10 mi 7,400 ft 260° 260° 16 - 24 kt SPECI CYYZ 010434Z 26016G24KT 10SM -SN SCT022 BKN074 M02/M06 A2989 RMK CF3AC3 SLP129
23:00
V
-2 °C 15 mi - 250° 250° 16 - 24 kt METAR CYYZ 010400Z 25016G24KT 15SM FEW022 SCT064 M02/M05 A2987 RMK CF2SC2 /S01/ SLP125
22:44
V
-2 °C 15 mi 6,200 ft 240° 240° 15 - 21 kt METAR CYYZ 010344Z 24015G21KT 15SM SCT029 BKN062 M02/M03 A2987 RMK CF3SC3 SLP124
22:26
V
-2 °C 5 mi 6,300 ft 250° 250° 16 - 24 kt METAR CYYZ 010326Z 25016G24KT 230V300 5SM -SN FEW008 SCT025 BKN063 M02/M02 A2987 RMK SF2SC2SC3 SLP122
22:06
L
-2 °C ¾ mi 600 ft 260° 260° 13 - 21 kt METAR CYYZ 010306Z 26013G21KT 3/4SM R24R/P6000FT/D R23/6000FT/N -SN VV006 M02/M02 A2987 RMK SN8 SLP122
22:00
I
-2 °C 2 mi 900 ft 250° 250° 14 - 21 kt METAR CYYZ 010300Z 25014G21KT 2SM -SHSN VV009 M02/M02 A2986 RMK SN8 CVCTV CLD EMBD SLP120
21:50
I
-1 °C 1½ mi 600 ft 250° 250° 15 - 24 kt METAR CYYZ 010250Z 25015G24KT 1 1/2SM -SHSN VV006 M01/M03 A2986 RMK SN8 CVCTV CLD EMBD SLP119
21:41
V
-1 °C 8 mi 5,200 ft 250° 250° 17 - 26 kt METAR CYYZ 010241Z 25017G26KT 8SM -SHSN SCT028 BKN052 M01/M05 A2986 RMK CF3SC4 CVCTV CLD EMBD SLP118
21:16
V
-2 °C 15 mi 5,000 ft 250° 250° 13 - 21 kt METAR CYYZ 010216Z 25013G21KT 15SM SCT031 BKN050 M02/M04 A2985 RMK CF4SC3 SLP117
21:00
V
-1 °C 10 mi 6,500 ft 250° 250° 21 - 27 kt METAR CYYZ 010200Z 25021G27KT 10SM -SHSN SCT025 BKN065 M01/M05 A2985 RMK CF3SC4 CVCTV CLD EMBD SLP117
20:00
V
-1 °C 15 mi 7,800 ft 260° 260° 23 - 31 kt METAR CYYZ 010100Z 26023G31KT 15SM SCT029 BKN078 M01/M06 A2984 RMK CF4AC2 SLP111
19:00
V
0 °C 15 mi 6,400 ft 250° 250° 22 - 30 kt METAR CYYZ 010000Z 25022G30KT 15SM SCT030 BKN064 M00/M06 A2982 RMK CF3SC4 SLP104
18:40
V
0 °C 15 mi 6,200 ft 260° 260° 22 - 27 kt METAR CYYZ 302340Z 26022G27KT 15SM SCT025 BKN062 M00/M06 A2981 RMK CF3SC4 SLP102
18:00
V
0 °C 15 mi 5,500 ft 260° 260° 19 - 29 kt METAR CYYZ 302300Z 26019G29KT 15SM -SN FEW030 BKN055 M00/M06 A2980 RMK CF2SC5 SLP099
17:00
V
0 °C 15 mi 5,000 ft 250° 250° 17 - 34 kt METAR CYYZ 302200Z 25017G34KT 15SM -SN OVC050 00/M06 A2976 RMK SC8 SLP087
16:45
V
0 °C 15 mi 4,500 ft 260° 260° 26 - 32 kt METAR CYYZ 302145Z 26026G32KT 15SM -SN OVC045 00/M07 A2976 RMK SC8 SLP084
16:00
V
0 °C 15 mi 3,000 ft 270° 270° 19 - 29 kt METAR CYYZ 302100Z 27019G29KT 15SM OVC030 00/M05 A2973 RMK SC8 SLP076
15:00
V
1 °C 15 mi 3,000 ft 260° 260° 28 - 34 kt METAR CYYZ 302000Z 26028G34KT 15SM OVC030 01/M04 A2968 RMK SC8 PRESRR SLP057
14:00
V
2 °C 15 mi 3,500 ft 270° 270° 24 - 37 kt METAR CYYZ 301900Z 27024G37KT 15SM OVC035 02/M03 A2961 RMK SC8 PRESRR SLP034
13:31
M
3 °C 15 mi 2,000 ft 260° 260° 23 - 31 kt METAR CYYZ 301831Z 26023G31KT 15SM OVC020 03/M00 A2959 RMK SC8 PRESRR SLP027
13:04
M
3 °C 15 mi 2,000 ft 280° 280° 31 kt SPECI CYYZ 301804Z 28031KT 15SM -RA OVC020 03/01 A2955 RMK SC8 SLP012
13:00
M
4 °C 15 mi 2,500 ft 270° 270° 28 - 35 kt METAR CYYZ 301800Z 27028G35KT 15SM OVC025 04/01 A2955 RMK SC8 PRESRR SLP015
12:20
V
4 °C 15 mi 4,000 ft 280° 280° 23 - 30 kt METAR CYYZ 301720Z 28023G30KT 15SM FEW010 BKN040 BKN100 04/02 A2951 RMK CF1SC5AC2 CF TR SLP998
12:00
M
4 °C 15 mi 1,700 ft 280° 280° 18 - 29 kt METAR CYYZ 301700Z 28018G29KT 15SM -RA FEW010 OVC017 04/03 A2949 RMK CF1SC7 PRESRR SLP994
11:42
M
5 °C 12 mi 1,700 ft 290° 290° 23 - 29 kt METAR CYYZ 301642Z 29023G29KT 12SM -RA FEW010 OVC017 05/04 A2948 RMK CF1SC8 CF TR SLP990
11:35
M
5 °C 15 mi 1,700 ft 290° 290° 20 - 26 kt METAR CYYZ 301635Z 29020G26KT 15SM FEW010 OVC017 05/04 A2948 RMK CF1SC8 CF TR PRESRR SLP988
11:00
M
6 °C 6 mi 1,500 ft 290° 290° 19 - 25 kt METAR CYYZ 301600Z 29019G25KT 6SM -RA BR BKN015 OVC035 06/06 A2946 RMK CU5SC3 SLP983
10:42
M
7 °C 4 mi 3,000 ft 280° 280° 19 - 24 kt METAR CYYZ 301542Z 28019G24KT 4SM -RA BR SCT005 OVC030 07/06 A2946 RMK SF4SC4 PRESRR SLP980
10:33
M
7 °C 3 mi 3,000 ft 290° 290° 18 - 36 kt METAR CYYZ 301533Z 29018G36KT 3SM RA BR FEW005 OVC030 07/06 A2943 RMK SF2SC6 PRESRR SLP973
10:22
I
8 °C 3 mi 1,000 ft 280° 280° 28 kt METAR CYYZ 301522Z 28028KT 190V290 3SM RA BR SCT005 OVC010 08/08 A2942 RMK SF4SC4 PRESRR SLP968
10:00
I
9 °C 4 mi 500 ft 190° 190° 8 - 18 kt METAR CYYZ 301500Z 19008G18KT 4SM -RA BR OVC005 09/09 A2940 RMK ST8 SLP961 DENSITY ALT 600FT
09:50
L
9 °C 3 mi 400 ft 180° 180° 10 - 15 kt METAR CYYZ 301450Z 18010G15KT 3SM -RA BR OVC004 09/09 A2941 RMK ST8 SLP966 DENSITY ALT 600FT
09:31
L
8 °C 3 mi 300 ft 170° 170° 7 kt METAR CYYZ 301431Z 17007KT 3SM R23/5500VP6000FT/U -RA BR OVC003 08/08 A2941 RMK ST8 SLP966
09:00
L
8 °C 3 mi 200 ft 150° 150° 8 kt METAR CYYZ 301400Z 15008KT 3SM -RA BR OVC002 08/08 A2943 RMK ST8 PRESFR SLP971
08:00
L
7 °C 3 mi 200 ft 150° 150° 9 kt METAR CYYZ 301300Z 15009KT 3SM -RA BR OVC002 07/07 A2948 RMK ST8 SLP988
07:00
L
7 °C 4 mi 200 ft 150° 150° 8 kt METAR CYYZ 301200Z 15008KT 4SM -RA BR OVC002 07/07 A2952 RMK ST8 SLP004
06:54
L
7 °C 4 mi 200 ft 140° 140° 9 kt METAR CYYZ 301154Z 14009KT 4SM -RA BR OVC002 07/07 A2953 RMK ST8 SLP006
06:28
L
6 °C 6 mi 300 ft 140° 140° 10 kt METAR CYYZ 301128Z 14010KT 6SM -RA BR BKN003 OVC010 06/06 A2955 RMK SF5SC3 SLP012
06:00
L
6 °C 6 mi 400 ft 140° 140° 9 kt METAR CYYZ 301100Z 14009KT 6SM -RA BR BKN004 OVC011 06/06 A2955 RMK SF5SC3 SLP014
05:37
M
6 °C 6 mi 1,500 ft 130° 130° 10 - 16 kt METAR CYYZ 301037Z 13010G16KT 6SM -RA BR SCT008 OVC015 06/06 A2957 RMK SF3SC5 SLP018
05:23
M
6 °C 8 mi 2,200 ft 130° 130° 8 kt METAR CYYZ 301023Z 13008KT 8SM -SHRA OVC022 06/06 A2958 RMK SC8 CVCTV CLD EMBD SLP021
05:18
M
6 °C 5 mi 2,400 ft 130° 130° 9 kt METAR CYYZ 301018Z 13009KT 5SM SHRA BR OVC024 06/06 A2958 RMK SC8 TCU EMBD SLP023
05:00
V
6 °C 10 mi 4,100 ft 130° 130° 9 kt METAR CYYZ 301000Z 13009KT 10SM -SHRA FEW030 OVC041 06/06 A2958 RMK CU2SC6 SLP024

We and third parties follow your internet behavior on our website with cookies. If you continue, we assume you agree with our cookie policy.